Peleus — V2FV2 — position and weather

sailwx.info

Track history (hours):
 
Tides and Currents Weather Stations Pressure Air Temp Water Temp Dewpoint Dewpoint Depression Visibility Wind Speed Wind Dir Waves Ship Positions

Peleus

Last reported at 2015-Mar-27 09:17 UTC. Time now 2015-Mar-30 22:59 UTC.
Position N 50°02' W 002°42'.

Length 88 m; draft 5.6 m.

Type: Cargo ship. MMSI: 305810000.

Date/timePositionNaut miles runAvg speedWind from/ knotsBaromVisibWave heightAir tempDewpointWater temp
2015-Mar-27 09:17N 50°02' W 002°42'5310.6
2015-Mar-27 04:18N 50°17' W 001°23'23 7.0
2015-Mar-27 01:05N 50°23' W 000°49'10 6.0
2015-Mar-26 23:29N 50°25' W 000°34'18 8.2
2015-Mar-26 21:16N 50°30' W 000°07'9 9.7
2015-Mar-26 20:21N 50°33' E 000°07'8 9.7
2015-Mar-26 19:33N 50°35' E 000°18'9 9.2
2015-Mar-26 18:33N 50°38' E 000°32'9 8.6
2015-Mar-26 17:33N 50°43' E 000°44'8 7.7
2015-Mar-26 16:34N 50°47' E 000°54'7 6.3
2015-Mar-26 15:26N 50°51' E 001°03'5 5.5
2015-Mar-26 14:32N 50°54' E 001°09'5 5.5
2015-Mar-26 13:34N 50°58' E 001°15'6 5.8
2015-Mar-26 12:34N 51°01' E 001°22'7 6.5
2015-Mar-26 11:33N 51°06' E 001°30'8 7.5
2015-Mar-26 10:33N 51°11' E 001°39'8 7.8
2015-Mar-26 09:33N 51°16' E 001°48'8 7.6
2015-Mar-26 08:33N 51°23' E 001°54'8 7.9
2015-Mar-26 07:33N 51°30' E 002°00'7 6.9
2015-Mar-26 06:34N 51°35' E 002°07'7 6.9
2015-Mar-26 05:32N 51°40' E 002°15'58 9.5
2015-Mar-25 23:24N 52°23' E 003°18'8 9.8
2015-Mar-25 22:33N 52°27' E 003°31'12 8.9
2015-Mar-25 21:13N 52°31' E 003°49'6 8.7
2015-Mar-25 20:33N 52°31' E 003°58'9 8.5
2015-Mar-25 19:33N 52°31' E 004°12'9 8.8
2015-Mar-25 18:33N 52°29' E 004°26'6 5.9
2015-Mar-25 17:33N 52°28' E 004°36'3 2.6
2015-Mar-25 16:32N 52°28' E 004°40'0 0.0
2015-Mar-25 15:32N 52°28' E 004°40'0 0.0
2015-Mar-25 14:32N 52°28' E 004°40'0 0.0
2015-Mar-25 13:29N 52°28' E 004°40'0 0.0
2015-Mar-25 12:32N 52°28' E 004°40'0 0.0
2015-Mar-25 11:29N 52°28' E 004°40'0 0.0
2015-Mar-25 10:29N 52°28' E 004°40'0 0.0
2015-Mar-25 09:29N 52°28' E 004°40'0 0.0
2015-Mar-25 08:29N 52°28' E 004°40'0 0.0
2015-Mar-25 07:32N 52°28' E 004°40'0 0.0
2015-Mar-25 06:32N 52°28' E 004°40'0 0.0
2015-Mar-25 05:29N 52°28' E 004°40'0 0.0
2015-Mar-25 04:32N 52°28' E 004°40'0 0.0
2015-Mar-25 03:32N 52°28' E 004°40'0 0.0
2015-Mar-25 02:29N 52°28' E 004°40'0 0.0
2015-Mar-25 01:26N 52°28' E 004°40'0 0.0
2015-Mar-25 00:32N 52°28' E 004°40'0 0.0
2015-Mar-24 23:29N 52°28' E 004°40'0 0.0
2015-Mar-24 22:32N 52°28' E 004°40'0 0.0
2015-Mar-24 21:32N 52°28' E 004°40'0 0.0
2015-Mar-24 20:32N 52°28' E 004°40'0 0.0
2015-Mar-24 19:32N 52°28' E 004°40'0 0.0
2015-Mar-24 18:32N 52°28' E 004°40'0 0.0
2015-Mar-24 17:32N 52°28' E 004°40'0 0.0
2015-Mar-24 16:26N 52°28' E 004°40'0 0.0
2015-Mar-24 15:29N 52°28' E 004°40'0 0.0
2015-Mar-24 14:32N 52°28' E 004°40'0 0.0
2015-Mar-24 13:32N 52°28' E 004°40'0 0.0
2015-Mar-24 12:26N 52°28' E 004°40'0 0.0
2015-Mar-24 11:26N 52°28' E 004°40'0 0.0
2015-Mar-24 10:29N 52°28' E 004°40'0 0.0
2015-Mar-24 09:32N 52°28' E 004°40'0 0.0
2015-Mar-24 08:26N 52°28' E 004°40'0 0.0
2015-Mar-24 07:32N 52°28' E 004°40'0 0.0
2015-Mar-24 06:32N 52°28' E 004°40'0 0.1
2015-Mar-24 05:34N 52°28' E 004°40'4 3.6
2015-Mar-24 04:33N 52°28' E 004°34'9 9.0
2015-Mar-24 03:33N 52°31' E 004°20'0 0.3
2015-Mar-24 02:33N 52°31' E 004°20'0 0.1
2015-Mar-24 01:33N 52°31' E 004°20'0 0.0
2015-Mar-24 00:33N 52°31' E 004°20'0 0.0
2015-Mar-23 23:33N 52°31' E 004°20'0 0.0
2015-Mar-23 22:33N 52°31' E 004°20'0 0.1
2015-Mar-23 21:33N 52°31' E 004°20'0 0.0
2015-Mar-23 20:33N 52°31' E 004°20'0 0.0
2015-Mar-23 16:19N 52°31' E 004°20'7 8.9
2015-Mar-23 15:33N 52°28' E 004°30'5 5.1
2015-Mar-23 14:33N 52°28' E 004°39'7 6.8
2015-Mar-23 13:32N 52°25' E 004°49'0 0.0
2015-Mar-23 12:29N 52°25' E 004°49'0 0.0
2015-Mar-23 11:32N 52°25' E 004°49'0 0.0
2015-Mar-23 10:32N 52°25' E 004°49'0 0.0
2015-Mar-23 09:32N 52°25' E 004°49'0 0.0
2015-Mar-23 08:32N 52°25' E 004°49'0 0.0
2015-Mar-23 07:32N 52°25' E 004°49'0 0.0
2015-Mar-23 06:32N 52°25' E 004°49'0 0.0
2015-Mar-23 05:29N 52°25' E 004°49'0 0.0
2015-Mar-23 04:32N 52°25' E 004°49'0 0.0
2015-Mar-23 03:32N 52°25' E 004°49'0 0.0
2015-Mar-23 02:32N 52°25' E 004°49'0 0.0
2015-Mar-23 01:33N 52°25' E 004°49'0 0.0
2015-Mar-23 00:32N 52°25' E 004°49'0 0.0
2015-Mar-22 23:26N 52°25' E 004°49'0 0.0
2015-Mar-22 22:31N 52°25' E 004°49'0 0.0
2015-Mar-22 21:31N 52°25' E 004°49'0 0.0
2015-Mar-22 20:31N 52°25' E 004°49'5 4.7
2015-Mar-22 19:33N 52°27' E 004°42'5 4.9
2015-Mar-22 18:33N 52°28' E 004°34'8 8.2
2015-Mar-22 17:33N 52°29' E 004°21'10 9.6
2015-Mar-22 16:34N 52°28' E 004°05'1110.2
2015-Mar-22 15:32N 52°25' E 003°49'70 8.8
2015-Mar-22 07:33N 51°37' E 002°25'8 7.8
2015-Mar-22 06:34N 51°31' E 002°17'8 8.0
2015-Mar-22 05:33N 51°24' E 002°11'9 9.0
2015-Mar-22 04:33N 51°16' E 002°05'8 8.4
2015-Mar-22 03:33N 51°10' E 001°55'9 9.0
2015-Mar-22 02:34N 51°04' E 001°44'11 9.8
2015-Mar-22 01:28N 50°56' E 001°33'268 6.2
2015-Mar-20 06:07N 50°37' W 005°30'105 9.6
2015-Mar-19 19:13N 51°26' W 003°04'7 9.5
2015-Mar-19 18:28N 51°33' W 002°59'1 0.1
2015-Mar-19 00:22N 51°34' W 002°58'0 0.0
2015-Mar-18 14:08N 51°34' W 002°58'0 0.0
2015-Mar-18 13:32N 51°34' W 002°58'0 0.0
2015-Mar-18 12:32N 51°34' W 002°58'0 0.0
2015-Mar-18 11:23N 51°34' W 002°58'0 0.0
2015-Mar-18 10:33N 51°34' W 002°58'0 0.0
2015-Mar-18 09:33N 51°34' W 002°58'0 0.0
2015-Mar-18 08:32N 51°34' W 002°58'0 0.0
2015-Mar-18 06:30N 51°34' W 002°58'0 0.0
2015-Mar-18 05:26N 51°34' W 002°58'1 1.4
2015-Mar-18 04:33N 51°33' W 002°59'9 9.2
2015-Mar-18 03:34N 51°25' W 003°06'88 5.5
2015-Mar-17 11:32N 50°45' W 005°10'1010.0
2015-Mar-17 10:33N 50°38' W 005°22'10 9.7
2015-Mar-17 09:33N 50°32' W 005°33'  
Track history (hours):
 
Tides and Currents Weather Stations Pressure Air Temp Water Temp Dewpoint Dewpoint Depression Visibility Wind Speed Wind Dir Waves Ship Positions

Peleus

Last reported at 2015-Mar-27 09:17 UTC. Time now 2015-Mar-30 22:59 UTC.
Position N 50°02' W 002°42'.

Length 88 m; draft 5.6 m.

Type: Cargo ship. MMSI: 305810000.

Date/timePositionNaut miles runAvg speedWind from/ knotsBaromVisibWave heightAir tempDewpointWater temp
2015-Mar-27 09:17N 50°02' W 002°42'5310.6
2015-Mar-27 04:18N 50°17' W 001°23'23 7.0
2015-Mar-27 01:05N 50°23' W 000°49'10 6.0
2015-Mar-26 23:29N 50°25' W 000°34'18 8.2
2015-Mar-26 21:16N 50°30' W 000°07'9 9.7
2015-Mar-26 20:21N 50°33' E 000°07'8 9.7
2015-Mar-26 19:33N 50°35' E 000°18'9 9.2
2015-Mar-26 18:33N 50°38' E 000°32'9 8.6
2015-Mar-26 17:33N 50°43' E 000°44'8 7.7
2015-Mar-26 16:34N 50°47' E 000°54'7 6.3
2015-Mar-26 15:26N 50°51' E 001°03'5 5.5
2015-Mar-26 14:32N 50°54' E 001°09'5 5.5
2015-Mar-26 13:34N 50°58' E 001°15'6 5.8
2015-Mar-26 12:34N 51°01' E 001°22'7 6.5
2015-Mar-26 11:33N 51°06' E 001°30'8 7.5
2015-Mar-26 10:33N 51°11' E 001°39'8 7.8
2015-Mar-26 09:33N 51°16' E 001°48'8 7.6
2015-Mar-26 08:33N 51°23' E 001°54'8 7.9
2015-Mar-26 07:33N 51°30' E 002°00'7 6.9
2015-Mar-26 06:34N 51°35' E 002°07'7 6.9
2015-Mar-26 05:32N 51°40' E 002°15'58 9.5
2015-Mar-25 23:24N 52°23' E 003°18'8 9.8
2015-Mar-25 22:33N 52°27' E 003°31'12 8.9
2015-Mar-25 21:13N 52°31' E 003°49'6 8.7
2015-Mar-25 20:33N 52°31' E 003°58'9 8.5
2015-Mar-25 19:33N 52°31' E 004°12'9 8.8
2015-Mar-25 18:33N 52°29' E 004°26'6 5.9
2015-Mar-25 17:33N 52°28' E 004°36'3 2.6
2015-Mar-25 16:32N 52°28' E 004°40'0 0.0
2015-Mar-25 15:32N 52°28' E 004°40'0 0.0
2015-Mar-25 14:32N 52°28' E 004°40'0 0.0
2015-Mar-25 13:29N 52°28' E 004°40'0 0.0
2015-Mar-25 12:32N 52°28' E 004°40'0 0.0
2015-Mar-25 11:29N 52°28' E 004°40'0 0.0
2015-Mar-25 10:29N 52°28' E 004°40'0 0.0
2015-Mar-25 09:29N 52°28' E 004°40'0 0.0
2015-Mar-25 08:29N 52°28' E 004°40'0 0.0
2015-Mar-25 07:32N 52°28' E 004°40'0 0.0
2015-Mar-25 06:32N 52°28' E 004°40'0 0.0
2015-Mar-25 05:29N 52°28' E 004°40'0 0.0
2015-Mar-25 04:32N 52°28' E 004°40'0 0.0
2015-Mar-25 03:32N 52°28' E 004°40'0 0.0
2015-Mar-25 02:29N 52°28' E 004°40'0 0.0
2015-Mar-25 01:26N 52°28' E 004°40'0 0.0
2015-Mar-25 00:32N 52°28' E 004°40'0 0.0
2015-Mar-24 23:29N 52°28' E 004°40'0 0.0
2015-Mar-24 22:32N 52°28' E 004°40'0 0.0
2015-Mar-24 21:32N 52°28' E 004°40'0 0.0
2015-Mar-24 20:32N 52°28' E 004°40'0 0.0
2015-Mar-24 19:32N 52°28' E 004°40'0 0.0
2015-Mar-24 18:32N 52°28' E 004°40'0 0.0
2015-Mar-24 17:32N 52°28' E 004°40'0 0.0
2015-Mar-24 16:26N 52°28' E 004°40'0 0.0
2015-Mar-24 15:29N 52°28' E 004°40'0 0.0
2015-Mar-24 14:32N 52°28' E 004°40'0 0.0
2015-Mar-24 13:32N 52°28' E 004°40'0 0.0
2015-Mar-24 12:26N 52°28' E 004°40'0 0.0
2015-Mar-24 11:26N 52°28' E 004°40'0 0.0
2015-Mar-24 10:29N 52°28' E 004°40'0 0.0
2015-Mar-24 09:32N 52°28' E 004°40'0 0.0
2015-Mar-24 08:26N 52°28' E 004°40'0 0.0
2015-Mar-24 07:32N 52°28' E 004°40'0 0.0
2015-Mar-24 06:32N 52°28' E 004°40'0 0.1
2015-Mar-24 05:34N 52°28' E 004°40'4 3.6
2015-Mar-24 04:33N 52°28' E 004°34'9 9.0
2015-Mar-24 03:33N 52°31' E 004°20'0 0.3
2015-Mar-24 02:33N 52°31' E 004°20'0 0.1
2015-Mar-24 01:33N 52°31' E 004°20'0 0.0
2015-Mar-24 00:33N 52°31' E 004°20'0 0.0
2015-Mar-23 23:33N 52°31' E 004°20'0 0.0
2015-Mar-23 22:33N 52°31' E 004°20'0 0.1
2015-Mar-23 21:33N 52°31' E 004°20'0 0.0
2015-Mar-23 20:33N 52°31' E 004°20'0 0.0
2015-Mar-23 16:19N 52°31' E 004°20'7 8.9
2015-Mar-23 15:33N 52°28' E 004°30'5 5.1
2015-Mar-23 14:33N 52°28' E 004°39'7 6.8
2015-Mar-23 13:32N 52°25' E 004°49'0 0.0
2015-Mar-23 12:29N 52°25' E 004°49'0 0.0
2015-Mar-23 11:32N 52°25' E 004°49'0 0.0
2015-Mar-23 10:32N 52°25' E 004°49'0 0.0
2015-Mar-23 09:32N 52°25' E 004°49'0 0.0
2015-Mar-23 08:32N 52°25' E 004°49'0 0.0
2015-Mar-23 07:32N 52°25' E 004°49'0 0.0
2015-Mar-23 06:32N 52°25' E 004°49'0 0.0
2015-Mar-23 05:29N 52°25' E 004°49'0 0.0
2015-Mar-23 04:32N 52°25' E 004°49'0 0.0
2015-Mar-23 03:32N 52°25' E 004°49'0 0.0
2015-Mar-23 02:32N 52°25' E 004°49'0 0.0
2015-Mar-23 01:33N 52°25' E 004°49'0 0.0
2015-Mar-23 00:32N 52°25' E 004°49'0 0.0
2015-Mar-22 23:26N 52°25' E 004°49'0 0.0
2015-Mar-22 22:31N 52°25' E 004°49'0 0.0
2015-Mar-22 21:31N 52°25' E 004°49'0 0.0
2015-Mar-22 20:31N 52°25' E 004°49'5 4.7
2015-Mar-22 19:33N 52°27' E 004°42'5 4.9
2015-Mar-22 18:33N 52°28' E 004°34'8 8.2
2015-Mar-22 17:33N 52°29' E 004°21'10 9.6
2015-Mar-22 16:34N 52°28' E 004°05'1110.2
2015-Mar-22 15:32N 52°25' E 003°49'70 8.8
2015-Mar-22 07:33N 51°37' E 002°25'8 7.8
2015-Mar-22 06:34N 51°31' E 002°17'8 8.0
2015-Mar-22 05:33N 51°24' E 002°11'9 9.0
2015-Mar-22 04:33N 51°16' E 002°05'8 8.4
2015-Mar-22 03:33N 51°10' E 001°55'9 9.0
2015-Mar-22 02:34N 51°04' E 001°44'11 9.8
2015-Mar-22 01:28N 50°56' E 001°33'268 6.2
2015-Mar-20 06:07N 50°37' W 005°30'105 9.6
2015-Mar-19 19:13N 51°26' W 003°04'7 9.5
2015-Mar-19 18:28N 51°33' W 002°59'1 0.1
2015-Mar-19 00:22N 51°34' W 002°58'0 0.0
2015-Mar-18 14:08N 51°34' W 002°58'0 0.0
2015-Mar-18 13:32N 51°34' W 002°58'0 0.0
2015-Mar-18 12:32N 51°34' W 002°58'0 0.0
2015-Mar-18 11:23N 51°34' W 002°58'0 0.0
2015-Mar-18 10:33N 51°34' W 002°58'0 0.0
2015-Mar-18 09:33N 51°34' W 002°58'0 0.0
2015-Mar-18 08:32N 51°34' W 002°58'0 0.0
2015-Mar-18 06:30N 51°34' W 002°58'0 0.0
2015-Mar-18 05:26N 51°34' W 002°58'1 1.4
2015-Mar-18 04:33N 51°33' W 002°59'9 9.2
2015-Mar-18 03:34N 51°25' W 003°06'88 5.5
2015-Mar-17 11:32N 50°45' W 005°10'1010.0
2015-Mar-17 10:33N 50°38' W 005°22'10 9.7
2015-Mar-17 09:33N 50°32' W 005°33'  

Dump ship's entire track history